createdAt,value
2023-02-23T00:00:08.162Z,-14.56
2023-02-23T00:02:52.573Z,-14.51
2023-02-23T00:05:21.737Z,-14.52
2023-02-23T00:07:51.679Z,-14.62
2023-02-23T00:10:30.030Z,-14.59
2023-02-23T00:13:00.253Z,-14.51
2023-02-23T00:15:31.086Z,-14.59
2023-02-23T00:18:04.141Z,-14.61
2023-02-23T00:20:49.383Z,-14.52
2023-02-23T00:23:19.663Z,-14.64
2023-02-23T00:25:53.994Z,-14.72
2023-02-23T00:28:23.168Z,-14.74
2023-02-23T00:30:52.785Z,-14.70
2023-02-23T00:33:30.184Z,-14.67
2023-02-23T00:36:07.832Z,-14.75
2023-02-23T00:38:39.457Z,-14.91
2023-02-23T00:41:12.461Z,-14.87
2023-02-23T00:43:54.217Z,-14.72
2023-02-23T00:46:26.647Z,-15.27
2023-02-23T00:49:04.785Z,-14.90
2023-02-23T00:51:33.978Z,-15.00
2023-02-23T00:54:03.120Z,-14.90
2023-02-23T00:56:32.316Z,-14.87
2023-02-23T00:59:01.528Z,-14.85
2023-02-23T01:01:31.201Z,-14.88
2023-02-23T01:04:03.848Z,-14.92
2023-02-23T01:06:33.062Z,-14.84
2023-02-23T01:09:10.114Z,-15.09
2023-02-23T01:11:41.023Z,-14.82
2023-02-23T01:14:12.017Z,-14.96
2023-02-23T01:16:43.728Z,-15.36
2023-02-23T01:19:14.977Z,-14.95
2023-02-23T01:21:45.359Z,-14.95
2023-02-23T01:24:21.959Z,-14.97
2023-02-23T01:26:51.181Z,-15.10
2023-02-23T01:29:25.496Z,-14.91
2023-02-23T01:31:55.141Z,-14.84
2023-02-23T01:34:28.226Z,-14.86
2023-02-23T01:36:57.402Z,-15.00
2023-02-23T01:39:26.645Z,-14.99
2023-02-23T01:41:57.131Z,-15.05
2023-02-23T01:44:56.279Z,-15.10
2023-02-23T01:47:26.392Z,-15.09
2023-02-23T01:49:57.502Z,-15.09
2023-02-23T01:52:32.143Z,-15.08
2023-02-23T01:55:01.448Z,-15.07
2023-02-23T01:57:32.223Z,-15.13
2023-02-23T02:00:01.556Z,-15.20
2023-02-23T02:02:48.604Z,-15.18
2023-02-23T02:05:21.655Z,-15.14
2023-02-23T02:08:03.676Z,-15.16
2023-02-23T02:10:45.488Z,-15.15
2023-02-23T02:13:25.209Z,-15.17
2023-02-23T02:16:34.638Z,-15.20
2023-02-23T02:22:44.349Z,-15.21
2023-02-23T02:25:40.449Z,-15.27
2023-02-23T02:28:32.278Z,-15.13
2023-02-23T02:31:23.609Z,-15.12
2023-02-23T02:34:26.550Z,-15.05
2023-02-23T02:37:29.611Z,-15.02
2023-02-23T02:40:16.325Z,-15.03
2023-02-23T02:43:10.936Z,-15.01
2023-02-23T02:45:47.447Z,-14.99
2023-02-23T02:48:32.574Z,-15.04
2023-02-23T02:51:09.701Z,-14.98
2023-02-23T02:53:50.384Z,-14.96
2023-02-23T02:56:23.251Z,-15.07
2023-02-23T02:58:59.530Z,-15.06
2023-02-23T03:01:45.068Z,-15.08
2023-02-23T03:04:37.468Z,-15.19
2023-02-23T03:07:25.806Z,-15.55
2023-02-23T03:10:17.184Z,-15.37
2023-02-23T03:13:11.851Z,-15.40
2023-02-23T03:16:06.943Z,-15.66
2023-02-23T03:19:04.415Z,-15.50
2023-02-23T03:24:52.803Z,-15.44
2023-02-23T03:27:41.607Z,-15.56
2023-02-23T03:30:32.415Z,-15.53
2023-02-23T03:33:25.502Z,-15.54
2023-02-23T03:36:14.920Z,-15.56
2023-02-23T03:39:04.942Z,-15.51
2023-02-23T03:41:50.521Z,-15.50
2023-02-23T03:44:44.228Z,-15.55
2023-02-23T03:47:30.246Z,-15.57
2023-02-23T03:50:19.070Z,-15.72
2023-02-23T03:53:07.354Z,-15.53
2023-02-23T03:58:54.061Z,-15.84
2023-02-23T04:01:41.509Z,-15.74
2023-02-23T04:04:29.758Z,-15.68
2023-02-23T04:07:15.858Z,-15.76
2023-02-23T04:10:03.415Z,-15.77
2023-02-23T04:12:52.167Z,-15.79
2023-02-23T04:15:26.792Z,-15.85
2023-02-23T04:17:58.378Z,-15.82
2023-02-23T04:20:27.911Z,-15.81
2023-02-23T04:22:57.199Z,-16.11
2023-02-23T04:25:26.617Z,-15.83
2023-02-23T04:27:55.899Z,-15.81
2023-02-23T04:30:25.305Z,-15.78
2023-02-23T04:32:54.520Z,-15.73
2023-02-23T04:35:27.461Z,-15.77
2023-02-23T04:37:58.366Z,-15.77
2023-02-23T04:40:28.111Z,-15.77
2023-02-23T04:42:57.457Z,-15.65
2023-02-23T04:45:27.701Z,-15.71
2023-02-23T04:47:57.417Z,-15.85
2023-02-23T04:50:33.662Z,-15.72
2023-02-23T04:53:04.017Z,-15.59
2023-02-23T04:55:33.659Z,-15.56
2023-02-23T05:00:38.990Z,-15.44
2023-02-23T05:03:08.405Z,-15.50
2023-02-23T05:05:49.930Z,-15.41
2023-02-23T05:08:19.168Z,-15.38
2023-02-23T05:10:48.769Z,-15.23
2023-02-23T05:13:24.575Z,-15.14
2023-02-23T05:15:59.141Z,-15.18
2023-02-23T05:18:33.438Z,-15.25
2023-02-23T05:21:09.649Z,-14.92
2023-02-23T05:23:39.674Z,-14.95
2023-02-23T05:26:10.957Z,-14.84
2023-02-23T05:28:43.572Z,-14.79
2023-02-23T05:31:13.529Z,-15.01
2023-02-23T05:33:45.323Z,-14.69
2023-02-23T05:36:23.080Z,-14.70
2023-02-23T05:38:52.524Z,-14.61
2023-02-23T05:41:23.791Z,-14.61
2023-02-23T05:43:59.339Z,-14.24
2023-02-23T05:46:29.366Z,-13.83
2023-02-23T05:49:00.419Z,-14.07
2023-02-23T05:51:33.948Z,-14.29
2023-02-23T05:54:03.420Z,-14.34
2023-02-23T05:56:32.607Z,-14.32
2023-02-23T05:59:02.086Z,-14.60
2023-02-23T06:01:31.308Z,-14.32
2023-02-23T06:04:06.319Z,-14.53
2023-02-23T06:06:37.714Z,-14.22
2023-02-23T06:09:06.874Z,-13.93
2023-02-23T06:11:36.331Z,-13.93
2023-02-23T06:14:11.312Z,-13.83
2023-02-23T06:16:40.866Z,-13.74
2023-02-23T06:19:10.468Z,-13.68
2023-02-23T06:21:41.553Z,-13.64
2023-02-23T06:24:11.832Z,-13.56
2023-02-23T06:26:42.859Z,-13.71
2023-02-23T06:29:14.608Z,-13.26
2023-02-23T06:31:43.772Z,-13.02
2023-02-23T06:34:13.312Z,-13.16
2023-02-23T06:36:44.589Z,-13.04
2023-02-23T06:39:14.504Z,-13.10
2023-02-23T06:41:43.689Z,-13.05
2023-02-23T06:44:19.631Z,-12.90
2023-02-23T06:46:49.315Z,-12.84
2023-02-23T06:49:18.385Z,-12.81
2023-02-23T06:51:56.624Z,-12.85
2023-02-23T06:54:26.077Z,-12.71
2023-02-23T06:56:56.267Z,-12.59
2023-02-23T06:59:25.904Z,-12.55
2023-02-23T07:01:55.144Z,-12.51
2023-02-23T07:04:25.391Z,-12.97
2023-02-23T07:06:56.650Z,-12.54
2023-02-23T07:09:26.011Z,-12.53
2023-02-23T07:11:55.095Z,-12.46
2023-02-23T07:14:29.296Z,-12.44
2023-02-23T07:16:58.499Z,-12.45
2023-02-23T07:19:28.303Z,-12.36
2023-02-23T07:22:04.562Z,-12.30
2023-02-23T07:24:33.822Z,-12.19
2023-02-23T07:27:03.336Z,-12.11
2023-02-23T07:29:32.621Z,-12.09
2023-02-23T07:32:02.340Z,-12.22
2023-02-23T07:34:36.812Z,-11.94
2023-02-23T07:37:07.899Z,-11.81
2023-02-23T07:39:42.143Z,-11.86
2023-02-23T07:42:11.336Z,-11.76
2023-02-23T07:44:41.057Z,-11.63
2023-02-23T07:49:45.484Z,-11.51
2023-02-23T07:52:20.190Z,-11.33
2023-02-23T07:54:54.655Z,-11.24
2023-02-23T07:57:25.081Z,-11.19
2023-02-23T07:59:59.461Z,-11.18
2023-02-23T08:02:29.797Z,-11.22
2023-02-23T08:05:04.954Z,-11.33
2023-02-23T08:07:36.379Z,-11.27
2023-02-23T08:10:06.152Z,-11.11
2023-02-23T08:12:35.541Z,-11.11
2023-02-23T08:15:05.243Z,-11.21
2023-02-23T08:17:34.415Z,-11.26
2023-02-23T08:20:03.650Z,-11.13
2023-02-23T08:25:11.617Z,-11.10
2023-02-23T08:27:41.711Z,-10.96
2023-02-23T08:30:13.798Z,-10.93
2023-02-23T08:32:43.460Z,-11.12
2023-02-23T08:35:20.003Z,-10.88
2023-02-23T08:37:51.327Z,-10.77
2023-02-23T08:40:20.717Z,-10.74
2023-02-23T08:42:56.655Z,-10.64
2023-02-23T08:45:28.962Z,-10.60
2023-02-23T08:47:58.403Z,-10.84
2023-02-23T08:50:27.662Z,-10.43
2023-02-23T08:52:59.301Z,-10.41
2023-02-23T08:55:29.353Z,-10.42
2023-02-23T08:58:03.874Z,-10.45
2023-02-23T09:00:33.015Z,-10.33
2023-02-23T09:03:02.306Z,-10.28
2023-02-23T09:05:31.492Z,-10.24
2023-02-23T09:08:03.040Z,-10.13
2023-02-23T09:10:38.220Z,-9.99
2023-02-23T09:13:07.430Z,-9.92
2023-02-23T09:15:36.952Z,-9.87
2023-02-23T09:18:15.021Z,-9.90
2023-02-23T09:20:44.607Z,-9.92
2023-02-23T09:23:15.753Z,-9.85
2023-02-23T09:25:51.334Z,-9.77
2023-02-23T09:28:22.225Z,-9.72
2023-02-23T09:30:51.435Z,-9.58
2023-02-23T09:33:20.562Z,-9.40
2023-02-23T09:35:54.959Z,-9.26
2023-02-23T09:38:26.050Z,-9.22
2023-02-23T09:40:56.502Z,-9.19
2023-02-23T09:43:34.099Z,-9.44
2023-02-23T09:46:15.827Z,-9.32
2023-02-23T09:48:45.011Z,-9.31
2023-02-23T09:51:22.381Z,-9.22
2023-02-23T09:53:56.940Z,-9.45
2023-02-23T09:56:35.445Z,-9.40
2023-02-23T09:59:09.702Z,-9.31
2023-02-23T10:02:02.463Z,-9.10
2023-02-23T10:04:34.402Z,-9.18
2023-02-23T10:07:11.865Z,-8.97
2023-02-23T10:10:00.963Z,-8.92
2023-02-23T10:12:36.163Z,-8.94
2023-02-23T10:15:20.899Z,-8.90
2023-02-23T10:18:03.737Z,-8.85
2023-02-23T10:20:41.156Z,-8.70
2023-02-23T10:23:25.794Z,-8.68
2023-02-23T10:26:01.166Z,-8.69
2023-02-23T10:28:35.848Z,-8.60
2023-02-23T10:31:25.894Z,-8.61
2023-02-23T10:33:57.717Z,-8.56
2023-02-23T10:36:37.414Z,-8.56
2023-02-23T10:39:09.575Z,-8.52
2023-02-23T10:41:41.849Z,-8.56
2023-02-23T10:44:20.246Z,-8.55
2023-02-23T10:46:55.737Z,-8.58
2023-02-23T10:49:30.152Z,-8.38
2023-02-23T10:52:02.483Z,-8.67
2023-02-23T10:54:47.082Z,-8.30
2023-02-23T10:57:26.618Z,-8.24
2023-02-23T11:00:32.498Z,-8.40
2023-02-23T11:03:03.973Z,-8.21
2023-02-23T11:05:37.710Z,-8.15
2023-02-23T11:08:14.141Z,-8.13
2023-02-23T11:10:49.248Z,-8.10
2023-02-23T11:13:28.518Z,-7.99
2023-02-23T11:16:09.065Z,-7.95
2023-02-23T11:18:39.530Z,-8.19
2023-02-23T11:21:19.813Z,-7.96
2023-02-23T11:23:53.439Z,-8.06
2023-02-23T11:26:30.314Z,-8.06
2023-02-23T11:29:05.296Z,-8.15
2023-02-23T11:31:36.909Z,-7.86
2023-02-23T11:34:23.382Z,-7.80
2023-02-23T11:37:02.175Z,-7.75
2023-02-23T11:39:31.385Z,-7.78
2023-02-23T11:42:19.961Z,-7.71
2023-02-23T11:45:03.901Z,-7.66
2023-02-23T11:50:22.061Z,-7.86
2023-02-23T11:55:38.673Z,-7.68
2023-02-23T11:58:24.156Z,-7.71
2023-02-23T12:01:00.747Z,-7.73
2023-02-23T12:03:43.619Z,-7.83
2023-02-23T12:06:12.987Z,-7.80
2023-02-23T12:08:47.005Z,-7.92
2023-02-23T12:11:22.230Z,-7.83
2023-02-23T12:13:56.048Z,-7.84
2023-02-23T12:16:31.449Z,-7.85
2023-02-23T12:19:07.925Z,-7.87
2023-02-23T12:21:43.477Z,-7.89
2023-02-23T12:24:20.042Z,-7.85
2023-02-23T12:26:54.267Z,-7.92
2023-02-23T12:29:31.426Z,-7.91
2023-02-23T12:32:13.205Z,-7.89
2023-02-23T12:34:49.108Z,-7.88
2023-02-23T12:37:31.118Z,-7.94
2023-02-23T12:40:04.685Z,-7.92
2023-02-23T12:42:53.468Z,-8.11
2023-02-23T12:45:30.826Z,-8.04
2023-02-23T12:53:23.592Z,-8.29
2023-02-23T12:56:14.155Z,-8.24
2023-02-23T12:58:51.755Z,-8.34
2023-02-23T13:01:28.552Z,-8.34
2023-02-23T13:04:15.134Z,-8.27
2023-02-23T13:06:56.866Z,-8.19
2023-02-23T13:09:45.448Z,-8.17
2023-02-23T13:12:30.839Z,-8.22
2023-02-23T13:17:58.667Z,-8.17
2023-02-23T13:23:26.431Z,-8.25
2023-02-23T13:26:07.991Z,-8.21
2023-02-23T13:28:44.888Z,-8.21
2023-02-23T13:31:26.216Z,-8.20
2023-02-23T13:33:58.633Z,-8.17
2023-02-23T13:36:36.328Z,-8.26
2023-02-23T13:39:35.192Z,-8.32
2023-02-23T13:42:27.700Z,-8.32
2023-02-23T13:45:09.655Z,-8.31
2023-02-23T13:47:45.055Z,-8.23
2023-02-23T13:50:23.293Z,-8.28
2023-02-23T13:52:58.046Z,-8.28
2023-02-23T13:55:54.512Z,-8.52
2023-02-23T13:58:30.874Z,-8.31
2023-02-23T14:01:13.655Z,-8.37
2023-02-23T14:03:47.199Z,-8.39
2023-02-23T14:06:19.576Z,-8.45
2023-02-23T14:09:00.197Z,-8.45
2023-02-23T14:11:47.275Z,-8.51
2023-02-23T14:14:49.134Z,-8.53
2023-02-23T14:17:50.083Z,-8.59
2023-02-23T14:20:48.784Z,-8.65
2023-02-23T14:23:32.120Z,-8.72
2023-02-23T14:29:25.057Z,-8.69
2023-02-23T14:32:00.978Z,-8.80
2023-02-23T14:34:48.579Z,-8.87
2023-02-23T14:37:32.328Z,-8.93
2023-02-23T14:40:15.263Z,-9.04
2023-02-23T14:42:54.424Z,-9.21
2023-02-23T14:45:28.485Z,-9.07
2023-02-23T14:48:01.464Z,-9.09
2023-02-23T14:50:35.416Z,-9.22
2023-02-23T14:53:06.723Z,-9.73
2023-02-23T14:55:37.102Z,-9.26
2023-02-23T14:58:23.019Z,-9.30
2023-02-23T15:00:52.205Z,-9.36
2023-02-23T15:03:22.109Z,-9.48
2023-02-23T15:06:01.480Z,-9.59
2023-02-23T15:08:40.269Z,-9.39
2023-02-23T15:11:13.963Z,-9.48
2023-02-23T15:13:49.585Z,-9.45
2023-02-23T15:16:36.418Z,-9.50
2023-02-23T15:19:07.229Z,-9.51
2023-02-23T15:21:43.568Z,-9.51
2023-02-23T15:24:16.176Z,-9.56
2023-02-23T15:29:27.932Z,-9.66
2023-02-23T15:32:18.525Z,-9.59
2023-02-23T15:34:48.262Z,-9.73
2023-02-23T15:37:29.634Z,-9.67
2023-02-23T15:40:03.633Z,-9.59
2023-02-23T15:42:43.301Z,-9.45
2023-02-23T15:45:21.897Z,-9.50
2023-02-23T15:48:00.799Z,-9.51
2023-02-23T15:50:37.270Z,-9.59
2023-02-23T15:53:15.283Z,-9.62
2023-02-23T15:55:46.079Z,-9.61
2023-02-23T15:58:26.054Z,-9.66
2023-02-23T16:00:59.991Z,-9.64
2023-02-23T16:03:33.182Z,-9.62
2023-02-23T16:06:10.654Z,-9.60
2023-02-23T16:08:58.557Z,-9.59
2023-02-23T16:11:28.661Z,-9.57
2023-02-23T16:13:58.012Z,-9.62
2023-02-23T16:16:32.904Z,-9.63
2023-02-23T16:19:04.902Z,-9.56
2023-02-23T16:21:34.894Z,-9.55
2023-02-23T16:24:10.987Z,-9.56
2023-02-23T16:26:50.037Z,-9.60
2023-02-23T16:29:27.184Z,-9.63
2023-02-23T16:32:04.285Z,-9.61
2023-02-23T16:34:36.838Z,-9.57
2023-02-23T16:37:17.792Z,-9.66
2023-02-23T16:39:49.028Z,-9.57
2023-02-23T16:42:27.276Z,-9.62
2023-02-23T16:44:56.593Z,-9.59
2023-02-23T16:47:37.527Z,-9.65
2023-02-23T16:50:19.863Z,-9.71
2023-02-23T16:52:52.532Z,-9.66
2023-02-23T16:55:26.949Z,-9.60
2023-02-23T16:57:59.306Z,-9.62
2023-02-23T17:00:30.977Z,-9.67
2023-02-23T17:03:06.202Z,-9.59
2023-02-23T17:05:35.552Z,-9.64
2023-02-23T17:08:05.049Z,-9.53
2023-02-23T17:10:42.348Z,-9.49
2023-02-23T17:13:19.272Z,-9.38
2023-02-23T17:15:51.209Z,-9.30
2023-02-23T17:18:21.544Z,-9.25
2023-02-23T17:20:52.820Z,-9.31
2023-02-23T17:23:25.605Z,-9.21
2023-02-23T17:25:58.028Z,-9.18
2023-02-23T17:28:27.481Z,-9.19
2023-02-23T17:30:56.605Z,-9.15
2023-02-23T17:33:27.664Z,-9.18
2023-02-23T17:35:56.963Z,-9.10
2023-02-23T17:38:33.478Z,-9.10
2023-02-23T17:41:08.044Z,-9.08
2023-02-23T17:43:44.134Z,-9.07
2023-02-23T17:46:18.905Z,-9.07
2023-02-23T17:48:55.297Z,-9.10
2023-02-23T17:51:25.795Z,-9.11
2023-02-23T17:56:32.115Z,-9.14
2023-02-23T17:59:01.096Z,-9.08
2023-02-23T18:01:35.967Z,-9.08
2023-02-23T18:04:05.335Z,-9.21
2023-02-23T18:06:34.529Z,-9.08
2023-02-23T18:09:05.564Z,-9.09
2023-02-23T18:11:37.205Z,-9.08
2023-02-23T18:14:11.587Z,-9.10
2023-02-23T18:16:42.490Z,-9.06
2023-02-23T18:19:16.845Z,-9.09
2023-02-23T18:21:46.031Z,-9.14
2023-02-23T18:24:15.430Z,-9.13
2023-02-23T18:26:46.521Z,-9.15
2023-02-23T18:29:15.717Z,-9.18
2023-02-23T18:31:45.019Z,-9.14
2023-02-23T18:34:17.351Z,-9.21
2023-02-23T18:36:51.536Z,-9.30
2023-02-23T18:39:21.290Z,-9.35
2023-02-23T18:41:52.830Z,-9.28
2023-02-23T18:44:22.709Z,-9.25
2023-02-23T18:46:52.525Z,-9.31
2023-02-23T18:49:25.188Z,-9.34
2023-02-23T18:51:56.285Z,-9.32
2023-02-23T18:54:30.683Z,-9.38
2023-02-23T18:57:01.766Z,-9.42
2023-02-23T18:59:31.089Z,-9.34
2023-02-23T19:02:00.427Z,-9.48
2023-02-23T19:04:29.773Z,-9.33
2023-02-23T19:07:04.053Z,-9.30
2023-02-23T19:09:33.917Z,-9.31
2023-02-23T19:12:05.191Z,-9.36
2023-02-23T19:14:48.871Z,-9.40
2023-02-23T19:17:18.779Z,-9.23
2023-02-23T19:19:48.076Z,-9.21
2023-02-23T19:22:18.268Z,-9.24
2023-02-23T19:24:47.355Z,-9.21
2023-02-23T19:27:18.707Z,-9.19
2023-02-23T19:29:48.106Z,-9.18
2023-02-23T19:32:18.168Z,-9.25
2023-02-23T19:34:53.911Z,-9.31
2023-02-23T19:37:28.163Z,-9.27
2023-02-23T19:39:57.561Z,-9.29
2023-02-23T19:42:31.399Z,-9.32
2023-02-23T19:45:06.486Z,-9.36
2023-02-23T19:47:35.675Z,-9.33
2023-02-23T19:50:16.519Z,-9.37
2023-02-23T19:52:46.333Z,-9.41
2023-02-23T19:55:21.749Z,-9.35
2023-02-23T19:57:53.914Z,-9.33
2023-02-23T20:00:29.278Z,-9.31
2023-02-23T20:03:02.792Z,-9.19
2023-02-23T20:05:43.374Z,-9.21
2023-02-23T20:08:18.920Z,-9.18
2023-02-23T20:10:48.061Z,-9.14
2023-02-23T20:13:20.463Z,-9.16
2023-02-23T20:15:54.717Z,-9.14
2023-02-23T20:18:24.689Z,-9.08
2023-02-23T20:20:59.306Z,-9.00
2023-02-23T20:23:28.552Z,-9.05
2023-02-23T20:25:57.837Z,-9.30
2023-02-23T20:28:29.112Z,-9.10
2023-02-23T20:31:03.584Z,-9.01
2023-02-23T20:33:33.372Z,-9.20
2023-02-23T20:36:02.585Z,-9.16
2023-02-23T20:38:31.794Z,-8.98
2023-02-23T20:41:03.335Z,-9.02
2023-02-23T20:43:34.582Z,-9.01
2023-02-23T20:46:03.986Z,-9.04
2023-02-23T20:48:35.026Z,-9.00
2023-02-23T20:51:12.497Z,-8.98
2023-02-23T20:53:46.189Z,-8.96
2023-02-23T20:56:18.138Z,-8.96
2023-02-23T20:58:49.434Z,-8.91
2023-02-23T21:01:22.122Z,-8.91
2023-02-23T21:03:52.113Z,-8.91
2023-02-23T21:06:21.604Z,-8.97
2023-02-23T21:09:07.487Z,-8.92
2023-02-23T21:11:46.167Z,-8.89
2023-02-23T21:14:24.050Z,-8.91
2023-02-23T21:16:53.378Z,-9.00
2023-02-23T21:19:28.228Z,-8.89
2023-02-23T21:22:01.276Z,-8.86
2023-02-23T21:24:35.882Z,-8.82
2023-02-23T21:27:05.445Z,-8.79
2023-02-23T21:29:41.985Z,-8.90
2023-02-23T21:32:16.500Z,-8.94
2023-02-23T21:34:48.918Z,-8.80
2023-02-23T21:37:23.267Z,-8.79
2023-02-23T21:39:52.571Z,-8.79
2023-02-23T21:42:24.052Z,-8.75
2023-02-23T21:44:55.565Z,-8.72
2023-02-23T21:47:24.863Z,-8.90
2023-02-23T21:49:53.987Z,-8.69
2023-02-23T21:52:28.360Z,-8.76
2023-02-23T21:54:58.923Z,-8.64
2023-02-23T21:57:28.400Z,-8.61
2023-02-23T21:59:59.463Z,-8.58
2023-02-23T22:02:35.236Z,-8.59
2023-02-23T22:05:06.562Z,-8.57
2023-02-23T22:07:35.832Z,-8.51
2023-02-23T22:10:05.946Z,-8.54
2023-02-23T22:12:35.483Z,-8.55
2023-02-23T22:15:14.939Z,-8.61
2023-02-23T22:17:44.579Z,-8.58
2023-02-23T22:20:15.020Z,-8.54
2023-02-23T22:22:49.455Z,-8.56
2023-02-23T22:25:20.373Z,-8.64
2023-02-23T22:27:50.494Z,-8.79
2023-02-23T22:30:22.626Z,-8.63
2023-02-23T22:32:52.044Z,-8.60
2023-02-23T22:35:21.586Z,-8.56
2023-02-23T22:37:50.826Z,-8.57
2023-02-23T22:40:20.372Z,-8.61
2023-02-23T22:42:54.652Z,-8.69
2023-02-23T22:45:25.788Z,-8.68
2023-02-23T22:47:55.144Z,-8.66
2023-02-23T22:50:24.672Z,-8.64
2023-02-23T22:52:53.953Z,-8.62
2023-02-23T22:55:23.185Z,-8.60
2023-02-23T22:57:52.308Z,-8.64
2023-02-23T23:00:21.790Z,-8.74
2023-02-23T23:02:53.182Z,-9.10
2023-02-23T23:05:23.869Z,-9.07
2023-02-23T23:08:04.311Z,-8.85
2023-02-23T23:10:33.549Z,-8.83
2023-02-23T23:13:03.440Z,-8.82
2023-02-23T23:15:34.017Z,-8.83
2023-02-23T23:18:08.775Z,-8.81
2023-02-23T23:20:43.056Z,-8.81
2023-02-23T23:23:12.347Z,-8.81
2023-02-23T23:25:41.908Z,-8.76
2023-02-23T23:28:13.994Z,-8.79
2023-02-23T23:30:46.824Z,-8.81
2023-02-23T23:33:18.528Z,-8.75
2023-02-23T23:35:48.713Z,-8.74
2023-02-23T23:38:20.044Z,-8.70
2023-02-23T23:40:53.178Z,-8.76
2023-02-23T23:43:33.268Z,-8.75
2023-02-23T23:46:08.269Z,-8.70
2023-02-23T23:48:41.706Z,-8.70
2023-02-23T23:51:11.271Z,-8.92
2023-02-23T23:53:40.386Z,-8.73
2023-02-23T23:56:11.602Z,-8.80
2023-02-23T23:58:40.781Z,-8.78
